Time;durP1;ratioP1;P1;durP2;ratioP2;P2;SDS_P1;SDS_P2;PMS_P1;PMS_P2;Temp;Humidity;BMP_temperature;BMP_pressure;BME280_temperature;BME280_humidity;BME280_pressure;Samples;Min_cycle;Max_cycle;Signal;HPM_P1;HPM_P2
2021/04/13 00:03:06;;;;;;;12.43;8.10;;;;;;;;;;5002085;28;20620;-86
2021/04/13 00:06:16;;;;;;;13.03;9.00;;;;;;;;;;4991275;28;20913;-86
2021/04/13 00:09:30;;;;;;;11.77;7.83;;;;;;;;;;5002508;28;20629;-87
2021/04/13 00:12:36;;;;;;;12.10;7.90;;;;;;;;;;5002296;28;20596;-86
2021/04/13 00:15:49;;;;;;;10.50;8.10;;;;;;;;;;5002280;28;20588;-86
2021/04/13 00:18:54;;;;;;;8.37;7.07;;;;;;;;;;5002437;28;20553;-87
2021/04/13 00:21:58;;;;;;;9.73;7.97;;;;;;;;;;5013299;28;20541;-86
2021/04/13 00:25:05;;;;;;;11.20;8.00;;;;;;;;;;4990894;28;20707;-86
2021/04/13 00:28:10;;;;;;;12.43;8.00;;;;;;;;;;5001998;28;20660;-86
2021/04/13 00:31:37;;;;;;;9.83;7.50;;;;;;;;;;5001538;28;20537;-87
2021/04/13 00:34:59;;;;;;;10.13;7.90;;;;;;;;;;5003093;28;20616;-86
2021/04/13 00:38:30;;;;;;;9.43;7.00;;;;;;;;;;5005366;28;20648;-86
2021/04/13 00:41:35;;;;;;;10.53;7.70;;;;;;;;;;5015742;28;20596;-86
2021/04/13 00:44:50;;;;;;;9.73;8.00;;;;;;;;;;5005788;28;20552;-86
2021/04/13 00:47:56;;;;;;;10.67;7.60;;;;;;;;;;5004394;28;20659;-86
2021/04/13 00:51:07;;;;;;;12.33;7.77;;;;;;;;;;5004386;28;20660;-86
2021/04/13 00:54:19;;;;;;;10.67;7.83;;;;;;;;;;5004204;28;20940;-86
2021/04/13 00:57:28;;;;;;;13.40;9.23;;;;;;;;;;4993512;28;20615;-86
2021/04/13 01:00:40;;;;;;;10.10;8.33;;;;;;;;;;4987005;28;20550;-86
2021/04/13 01:03:59;;;;;;;11.10;7.37;;;;;;;;;;4985588;28;20534;-86
2021/04/13 01:07:13;;;;;;;8.87;7.57;;;;;;;;;;4985412;28;20655;-86
2021/04/13 01:10:33;;;;;;;10.40;7.87;;;;;;;;;;5005100;28;20589;-86
2021/04/13 01:13:51;;;;;;;11.13;7.43;;;;;;;;;;5004490;28;20549;-85
2021/04/13 01:16:58;;;;;;;10.50;8.00;;;;;;;;;;5004307;28;20977;-86
2021/04/13 01:20:06;;;;;;;10.87;7.73;;;;;;;;;;5003763;28;20600;-86
2021/04/13 01:23:21;;;;;;;10.27;8.07;;;;;;;;;;4986173;28;20577;-86
2021/04/13 01:26:32;;;;;;;10.73;8.13;;;;;;;;;;5004388;28;20550;-86
2021/04/13 01:29:36;;;;;;;10.93;8.37;;;;;;;;;;4997959;28;20609;-86
2021/04/13 01:32:41;;;;;;;10.13;8.00;;;;;;;;;;5004454;28;20592;-86
2021/04/13 01:35:50;;;;;;;11.83;8.67;;;;;;;;;;5014838;28;20560;-86
2021/04/13 01:39:10;;;;;;;11.30;8.83;;;;;;;;;;5004066;28;20596;-86
2021/04/13 01:42:16;;;;;;;10.73;8.27;;;;;;;;;;4992161;28;21146;-86
2021/04/13 01:45:24;;;;;;;11.47;8.30;;;;;;;;;;5003602;28;20600;-86
2021/04/13 01:48:31;;;;;;;10.57;8.13;;;;;;;;;;5003485;28;21230;-86
2021/04/13 01:51:36;;;;;;;10.43;7.87;;;;;;;;;;5003278;28;20588;-86
2021/04/13 01:54:40;;;;;;;12.00;8.63;;;;;;;;;;5014474;28;20549;-86
2021/04/13 01:57:53;;;;;;;10.83;7.97;;;;;;;;;;5001691;28;20628;-85
2021/04/13 02:01:00;;;;;;;13.40;8.73;;;;;;;;;;5002025;28;20592;-86
2021/04/13 02:04:19;;;;;;;12.37;8.67;;;;;;;;;;4996583;28;20620;-85
2021/04/13 02:11:06;;;;;;;9.83;7.97;;;;;;;;;;5025386;28;20557;-85
2021/04/13 02:14:24;;;;;;;11.63;7.93;;;;;;;;;;5024331;28;20588;-85
2021/04/13 02:17:37;;;;;;;10.43;8.10;;;;;;;;;;5002307;28;20660;-86
2021/04/13 02:20:44;;;;;;;12.87;8.40;;;;;;;;;;4982813;28;20538;-85
2021/04/13 02:23:55;;;;;;;12.13;8.53;;;;;;;;;;4998138;28;20636;-86
2021/04/13 02:27:04;;;;;;;11.67;8.80;;;;;;;;;;5001974;28;20644;-86
2021/04/13 02:30:15;;;;;;;11.23;8.17;;;;;;;;;;4994441;28;20610;-86
2021/04/13 02:33:35;;;;;;;12.03;9.27;;;;;;;;;;4992627;28;20632;-85
2021/04/13 02:36:44;;;;;;;11.30;8.60;;;;;;;;;;4991420;28;20621;-85
2021/04/13 02:40:17;;;;;;;11.00;8.47;;;;;;;;;;4987233;28;20641;-86
2021/04/13 02:43:31;;;;;;;12.80;8.87;;;;;;;;;;4971827;28;20589;-86
2021/04/13 02:46:38;;;;;;;13.37;8.47;;;;;;;;;;4971719;28;20558;-86
2021/04/13 02:49:42;;;;;;;10.87;8.27;;;;;;;;;;4986165;28;20640;-86
2021/04/13 02:52:52;;;;;;;13.07;8.77;;;;;;;;;;4990660;28;20592;-85
2021/04/13 02:55:59;;;;;;;11.10;8.47;;;;;;;;;;5013264;28;21095;-85
2021/04/13 02:59:12;;;;;;;14.10;8.20;;;;;;;;;;4981496;28;20597;-86
2021/04/13 03:02:40;;;;;;;9.83;8.23;;;;;;;;;;4987617;28;20596;-86
2021/04/13 03:05:52;;;;;;;12.77;8.83;;;;;;;;;;5002552;28;21088;-86
2021/04/13 03:08:57;;;;;;;10.33;7.97;;;;;;;;;;5004717;28;20690;-86
2021/04/13 03:12:04;;;;;;;11.40;8.83;;;;;;;;;;4994540;28;20592;-86
2021/04/13 03:15:13;;;;;;;12.57;8.63;;;;;;;;;;5002502;28;20624;-86
2021/04/13 03:18:21;;;;;;;13.27;8.63;;;;;;;;;;5001177;28;20648;-86
2021/04/13 03:21:33;;;;;;;9.93;7.87;;;;;;;;;;4990927;28;20545;-86
2021/04/13 03:24:44;;;;;;;10.87;8.40;;;;;;;;;;5001230;28;20553;-86
2021/04/13 03:27:49;;;;;;;10.83;8.63;;;;;;;;;;5000949;28;20624;-87
2021/04/13 03:30:54;;;;;;;13.17;9.07;;;;;;;;;;5000905;28;20874;-87
2021/04/13 03:34:00;;;;;;;12.27;8.50;;;;;;;;;;5000537;28;20632;-86
2021/04/13 03:37:06;;;;;;;10.50;8.20;;;;;;;;;;5001096;28;20627;-86
2021/04/13 03:40:16;;;;;;;11.23;8.07;;;;;;;;;;5011411;28;20596;-86
2021/04/13 03:43:24;;;;;;;10.63;8.07;;;;;;;;;;5010962;28;20588;-87
2021/04/13 03:46:34;;;;;;;11.77;8.90;;;;;;;;;;5000285;28;20549;-86
2021/04/13 03:49:41;;;;;;;10.53;7.43;;;;;;;;;;5000204;28;20640;-86
2021/04/13 03:52:45;;;;;;;11.63;8.47;;;;;;;;;;4995314;28;20608;-86
2021/04/13 03:56:03;;;;;;;11.03;8.70;;;;;;;;;;4999272;28;20596;-86
2021/04/13 03:59:18;;;;;;;10.63;8.20;;;;;;;;;;5023598;28;20601;-86
2021/04/13 04:02:22;;;;;;;13.17;9.37;;;;;;;;;;4988469;28;20601;-86
2021/04/13 04:05:44;;;;;;;10.10;8.67;;;;;;;;;;4985897;28;20608;-86
2021/04/13 04:08:49;;;;;;;13.70;9.20;;;;;;;;;;4992654;28;20565;-87
2021/04/13 04:11:54;;;;;;;12.30;9.07;;;;;;;;;;4982574;28;20584;-85
2021/04/13 04:15:10;;;;;;;13.50;9.00;;;;;;;;;;4985414;28;20550;-87
2021/04/13 04:18:25;;;;;;;14.33;10.20;;;;;;;;;;4987746;28;20617;-87
2021/04/13 04:21:37;;;;;;;11.63;9.33;;;;;;;;;;4993385;28;20596;-87
2021/04/13 04:24:43;;;;;;;12.13;9.13;;;;;;;;;;4993311;28;20620;-87
2021/04/13 04:27:47;;;;;;;11.43;8.67;;;;;;;;;;5004485;28;20632;-87
2021/04/13 04:30:51;;;;;;;13.43;9.53;;;;;;;;;;4973695;28;20653;-87
2021/04/13 04:33:55;;;;;;;15.60;10.40;;;;;;;;;;4974069;28;20628;-87
2021/04/13 04:37:00;;;;;;;15.07;10.27;;;;;;;;;;4985163;28;20636;-87
2021/04/13 04:40:38;;;;;;;13.90;10.57;;;;;;;;;;4985148;28;20533;-87
2021/04/13 04:43:58;;;;;;;17.07;11.13;;;;;;;;;;4963299;28;20561;-87
2021/04/13 04:47:22;;;;;;;15.10;10.90;;;;;;;;;;4985003;28;20969;-87
2021/04/13 04:50:26;;;;;;;13.80;9.63;;;;;;;;;;4984614;28;20609;-86
2021/04/13 04:53:32;;;;;;;14.47;10.60;;;;;;;;;;5001750;28;20592;-87
2021/04/13 04:56:36;;;;;;;16.70;11.93;;;;;;;;;;4993127;28;20557;-86
2021/04/13 04:59:40;;;;;;;17.90;12.67;;;;;;;;;;4993428;28;20537;-86
2021/04/13 05:02:44;;;;;;;18.27;13.70;;;;;;;;;;4974676;28;20619;-86
2021/04/13 05:05:50;;;;;;;19.07;13.97;;;;;;;;;;4993524;28;20599;-85
2021/04/13 05:08:55;;;;;;;19.03;13.33;;;;;;;;;;4982503;28;20537;-86
2021/04/13 05:11:59;;;;;;;20.27;13.77;;;;;;;;;;4983109;28;20952;-87
2021/04/13 05:15:33;;;;;;;19.20;13.37;;;;;;;;;;5005713;28;20595;-85
2021/04/13 05:18:38;;;;;;;19.87;14.47;;;;;;;;;;4993743;28;20639;-86
2021/04/13 05:21:42;;;;;;;19.57;14.60;;;;;;;;;;4995746;28;20616;-85
2021/04/13 05:24:46;;;;;;;21.33;15.40;;;;;;;;;;4983212;28;20620;-86
2021/04/13 05:27:50;;;;;;;20.10;14.73;;;;;;;;;;4982740;28;20677;-85
2021/04/13 05:30:54;;;;;;;21.60;14.60;;;;;;;;;;4993822;28;20609;-85
2021/04/13 05:33:59;;;;;;;22.63;14.90;;;;;;;;;;4982964;28;20615;-86
2021/04/13 05:37:03;;;;;;;20.13;14.67;;;;;;;;;;5005288;28;20635;-86
2021/04/13 05:40:15;;;;;;;20.50;14.73;;;;;;;;;;4992947;28;20556;-85
2021/04/13 05:43:20;;;;;;;22.27;14.83;;;;;;;;;;4993433;28;21170;-85
2021/04/13 05:46:25;;;;;;;20.93;14.67;;;;;;;;;;4981932;28;20549;-85
2021/04/13 05:49:29;;;;;;;21.60;16.13;;;;;;;;;;5015875;28;20636;-85
2021/04/13 05:52:34;;;;;;;19.50;13.97;;;;;;;;;;5004913;28;20905;-85
2021/04/13 05:55:38;;;;;;;20.30;15.37;;;;;;;;;;4994116;28;20536;-86
2021/04/13 05:58:45;;;;;;;20.57;14.77;;;;;;;;;;5004510;28;20639;-85
2021/04/13 06:01:50;;;;;;;19.00;14.20;;;;;;;;;;4991047;28;20577;-86
2021/04/13 06:04:55;;;;;;;22.27;15.63;;;;;;;;;;4983891;28;20592;-86
2021/04/13 06:07:59;;;;;;;21.03;14.90;;;;;;;;;;4994036;28;20639;-85
2021/04/13 06:11:06;;;;;;;21.97;15.77;;;;;;;;;;4993279;28;20600;-85
2021/04/13 06:14:11;;;;;;;24.00;15.27;;;;;;;;;;4982849;28;20561;-85
2021/04/13 06:17:16;;;;;;;19.00;13.90;;;;;;;;;;4982511;28;20637;-85
2021/04/13 06:20:22;;;;;;;20.20;14.57;;;;;;;;;;4993843;28;20600;-85
2021/04/13 06:23:26;;;;;;;18.90;13.63;;;;;;;;;;4982309;28;20608;-85
2021/04/13 06:26:30;;;;;;;19.37;13.80;;;;;;;;;;4978751;28;21117;-87
2021/04/13 06:29:37;;;;;;;21.87;13.67;;;;;;;;;;4984603;28;20596;-86
2021/04/13 06:32:41;;;;;;;18.53;13.73;;;;;;;;;;4982901;28;20994;-86
2021/04/13 06:35:47;;;;;;;21.10;13.67;;;;;;;;;;5000155;28;20616;-86
2021/04/13 06:38:53;;;;;;;17.43;12.97;;;;;;;;;;4982840;28;20553;-87
2021/04/13 06:42:22;;;;;;;17.43;11.60;;;;;;;;;;4971702;28;20542;-86
2021/04/13 06:45:35;;;;;;;16.83;11.63;;;;;;;;;;4971715;28;20560;-86
2021/04/13 06:48:44;;;;;;;16.03;11.10;;;;;;;;;;4982723;28;20617;-87
2021/04/13 06:52:22;;;;;;;17.77;12.10;;;;;;;;;;4990223;28;20664;-87
2021/04/13 06:56:06;;;;;;;17.37;12.30;;;;;;;;;;4980125;28;20545;-86
2021/04/13 06:59:37;;;;;;;19.23;12.43;;;;;;;;;;5008883;28;20600;-86
2021/04/13 07:02:56;;;;;;;15.23;11.13;;;;;;;;;;4990220;28;20580;-86
2021/04/13 07:06:11;;;;;;;14.30;10.67;;;;;;;;;;5001893;28;20585;-86
2021/04/13 07:09:38;;;;;;;14.47;10.23;;;;;;;;;;4982537;28;20581;-86
2021/04/13 07:13:05;;;;;;;13.10;9.60;;;;;;;;;;4971647;28;20558;-85
2021/04/13 07:16:45;;;;;;;11.27;8.63;;;;;;;;;;4976683;28;20596;-85
2021/04/13 07:19:54;;;;;;;14.17;9.73;;;;;;;;;;4991015;28;21115;-85
2021/04/13 07:23:21;;;;;;;13.30;9.40;;;;;;;;;;4988965;28;20604;-86
2021/04/13 07:26:31;;;;;;;12.80;9.10;;;;;;;;;;4990622;28;20541;-86
2021/04/13 07:29:45;;;;;;;12.07;9.33;;;;;;;;;;5001013;28;20561;-85
2021/04/13 07:32:53;;;;;;;12.27;9.70;;;;;;;;;;4975046;28;20632;-86
2021/04/13 07:36:03;;;;;;;13.83;9.80;;;;;;;;;;5002061;28;20897;-87
2021/04/13 07:39:08;;;;;;;12.43;9.37;;;;;;;;;;4990599;28;20585;-87
2021/04/13 07:42:26;;;;;;;11.83;8.63;;;;;;;;;;4992367;28;20881;-86
2021/04/13 07:45:45;;;;;;;9.80;8.07;;;;;;;;;;5005954;28;20564;-86
2021/04/13 07:49:29;;;;;;;9.17;7.77;;;;;;;;;;4994711;28;20541;-86
2021/04/13 07:52:47;;;;;;;9.87;7.00;;;;;;;;;;5005399;28;20585;-86
2021/04/13 07:55:56;;;;;;;7.73;6.50;;;;;;;;;;4994000;28;20584;-86
2021/04/13 07:59:13;;;;;;;8.77;7.47;;;;;;;;;;4994534;28;20596;-85
2021/04/13 08:02:18;;;;;;;8.47;6.70;;;;;;;;;;4994336;28;20178;-85
2021/04/13 08:05:40;;;;;;;7.03;6.00;;;;;;;;;;4982885;28;20189;-86
2021/04/13 08:08:45;;;;;;;8.43;7.00;;;;;;;;;;4983475;28;20206;-86
2021/04/13 08:12:11;;;;;;;8.27;6.30;;;;;;;;;;4993753;28;20577;-85
2021/04/13 08:15:17;;;;;;;7.27;6.30;;;;;;;;;;4994118;28;20173;-86
2021/04/13 08:18:30;;;;;;;7.17;5.87;;;;;;;;;;4993670;28;20583;-86
2021/04/13 08:21:35;;;;;;;10.00;6.63;;;;;;;;;;5005087;28;20186;-85
2021/04/13 08:24:48;;;;;;;6.90;5.90;;;;;;;;;;4993986;28;20181;-86
2021/04/13 08:28:02;;;;;;;7.93;4.97;;;;;;;;;;4994061;28;20688;-85
2021/04/13 08:35:31;;;;;;;7.70;6.07;;;;;;;;;;4996633;28;20638;-85
2021/04/13 08:38:57;;;;;;;6.67;5.80;;;;;;;;;;4996419;28;20553;-85
2021/04/13 08:42:33;;;;;;;9.07;5.80;;;;;;;;;;5000048;28;20185;-86
2021/04/13 08:45:41;;;;;;;6.27;5.23;;;;;;;;;;5004618;28;20182;-85
2021/04/13 08:49:10;;;;;;;7.20;5.73;;;;;;;;;;5004342;28;20645;-85
2021/04/13 08:52:38;;;;;;;10.33;5.80;;;;;;;;;;4993339;28;20209;-85
2021/04/13 08:55:45;;;;;;;5.93;5.33;;;;;;;;;;4956319;28;20197;-86
2021/04/13 08:58:53;;;;;;;7.03;5.10;;;;;;;;;;4993013;28;20185;-85
2021/04/13 09:02:18;;;;;;;5.87;5.07;;;;;;;;;;4993135;28;20174;-85
2021/04/13 09:05:26;;;;;;;7.03;5.20;;;;;;;;;;4984655;28;20191;-86
2021/04/13 09:08:46;;;;;;;7.50;5.70;;;;;;;;;;4984481;28;20217;-85
2021/04/13 09:12:06;;;;;;;5.53;4.40;;;;;;;;;;4972508;28;20226;-85
2021/04/13 09:15:23;;;;;;;6.20;4.53;;;;;;;;;;5000380;28;20193;-85
2021/04/13 09:18:37;;;;;;;5.20;4.60;;;;;;;;;;4992538;28;20225;-85
2021/04/13 09:21:49;;;;;;;4.10;3.70;;;;;;;;;;4993348;28;20178;-86
2021/04/13 09:25:11;;;;;;;5.17;4.37;;;;;;;;;;4973218;28;20187;-85
2021/04/13 09:28:22;;;;;;;4.60;4.00;;;;;;;;;;4968903;28;20221;-86
2021/04/13 09:31:30;;;;;;;7.27;4.80;;;;;;;;;;4972807;28;20222;-85
2021/04/13 09:35:00;;;;;;;4.63;3.77;;;;;;;;;;4987470;28;20665;-85
2021/04/13 09:38:07;;;;;;;6.03;4.30;;;;;;;;;;4975014;28;20221;-86
2021/04/13 09:41:30;;;;;;;5.40;4.13;;;;;;;;;;5003157;28;20194;-85
2021/04/13 09:45:00;;;;;;;4.97;4.20;;;;;;;;;;4992271;28;20178;-86
2021/04/13 09:48:17;;;;;;;5.03;3.47;;;;;;;;;;4985559;28;20230;-86
2021/04/13 09:51:38;;;;;;;4.77;3.80;;;;;;;;;;4992310;28;20222;-86
2021/04/13 09:54:47;;;;;;;4.43;3.23;;;;;;;;;;5003067;28;20189;-86
2021/04/13 09:57:58;;;;;;;3.97;3.17;;;;;;;;;;4991739;28;20213;-86
2021/04/13 10:01:24;;;;;;;4.50;3.40;;;;;;;;;;4991890;28;20174;-86
2021/04/13 10:04:44;;;;;;;5.17;3.20;;;;;;;;;;5002241;28;20548;-86
2021/04/13 10:07:57;;;;;;;9.43;5.00;;;;;;;;;;4991351;28;20221;-87
2021/04/13 10:11:08;;;;;;;5.30;3.80;;;;;;;;;;4987594;28;20209;-87
2021/04/13 10:14:49;;;;;;;4.17;3.50;;;;;;;;;;4990713;28;20193;-90
2021/04/13 10:18:21;;;;;;;5.60;3.20;;;;;;;;;;4996678;28;20225;-89
2021/04/13 10:22:03;;;;;;;5.60;3.43;;;;;;;;;;4987571;28;20553;-88
2021/04/13 10:25:26;;;;;;;4.20;3.80;;;;;;;;;;4990976;28;20205;-88
2021/04/13 10:28:59;;;;;;;6.90;4.10;;;;;;;;;;5001801;28;20225;-88
2021/04/13 10:32:06;;;;;;;5.33;3.53;;;;;;;;;;4991245;28;20217;-88
2021/04/13 10:35:25;;;;;;;5.03;3.47;;;;;;;;;;4990719;28;20604;-87
2021/04/13 10:38:48;;;;;;;4.90;3.50;;;;;;;;;;5014847;28;20221;-88
2021/04/13 10:42:20;;;;;;;4.80;4.27;;;;;;;;;;4977901;28;20190;-86
2021/04/13 10:45:52;;;;;;;4.97;4.03;;;;;;;;;;4986886;28;20667;-87
2021/04/13 10:49:39;;;;;;;3.20;2.90;;;;;;;;;;4998434;28;20560;-87
2021/04/13 10:53:18;;;;;;;4.17;3.40;;;;;;;;;;4998107;28;20205;-86
2021/04/13 10:57:00;;;;;;;5.10;3.50;;;;;;;;;;4994132;28;20185;-87
2021/04/13 11:00:26;;;;;;;5.50;3.73;;;;;;;;;;4981480;28;20657;-86
2021/04/13 11:04:06;;;;;;;9.57;3.50;;;;;;;;;;4987042;28;20648;-86
2021/04/13 11:07:25;;;;;;;3.90;3.20;;;;;;;;;;4921975;28;20223;-86
2021/04/13 11:10:51;;;;;;;5.47;3.50;;;;;;;;;;4996116;28;20716;-86
2021/04/13 11:14:29;;;;;;;4.00;2.80;;;;;;;;;;4987741;28;20193;-86
2021/04/13 11:17:56;;;;;;;3.83;2.97;;;;;;;;;;4974072;28;20232;-86
2021/04/13 11:21:43;;;;;;;3.10;2.80;;;;;;;;;;4987175;28;20189;-86
2021/04/13 11:25:06;;;;;;;3.73;2.97;;;;;;;;;;4989340;28;20193;-86
2021/04/13 11:28:34;;;;;;;3.53;2.73;;;;;;;;;;4997548;28;20221;-86
2021/04/13 11:32:03;;;;;;;2.60;2.27;;;;;;;;;;4997149;28;20213;-86
2021/04/13 11:35:22;;;;;;;3.60;2.80;;;;;;;;;;4998091;28;20193;-86
2021/04/13 11:38:44;;;;;;;3.73;2.17;;;;;;;;;;5010004;28;20221;-86
2021/04/13 11:42:07;;;;;;;2.57;2.17;;;;;;;;;;4980903;28;20641;-86
2021/04/13 11:45:25;;;;;;;3.00;2.43;;;;;;;;;;4990198;28;20183;-86
2021/04/13 11:48:52;;;;;;;2.53;2.33;;;;;;;;;;4978235;28;20562;-86
2021/04/13 11:52:04;;;;;;;3.63;3.00;;;;;;;;;;4984561;28;20205;-86
2021/04/13 11:55:45;;;;;;;4.57;3.07;;;;;;;;;;4978304;28;20183;-85
2021/04/13 11:59:17;;;;;;;4.93;3.00;;;;;;;;;;4986580;28;20193;-86
2021/04/13 12:02:25;;;;;;;6.47;4.10;;;;;;;;;;4967080;28;20182;-86
2021/04/13 12:05:34;;;;;;;5.20;4.50;;;;;;;;;;4992843;28;20558;-89
2021/04/13 12:08:41;;;;;;;4.97;3.93;;;;;;;;;;4969780;28;20224;-86
2021/04/13 12:11:47;;;;;;;10.43;5.17;;;;;;;;;;4995247;28;20221;-89
2021/04/13 12:14:51;;;;;;;4.57;4.03;;;;;;;;;;4986361;28;20197;-88
2021/04/13 12:18:02;;;;;;;4.40;4.00;;;;;;;;;;4997225;28;20228;-89
2021/04/13 12:21:21;;;;;;;5.23;4.03;;;;;;;;;;4967790;28;20183;-87
2021/04/13 12:24:38;;;;;;;5.60;4.00;;;;;;;;;;5001253;28;20198;-89
2021/04/13 12:27:44;;;;;;;4.90;3.93;;;;;;;;;;4990098;28;20213;-88
2021/04/13 12:30:56;;;;;;;4.60;3.73;;;;;;;;;;4963628;28;20634;-84
2021/04/13 12:34:04;;;;;;;5.03;3.80;;;;;;;;;;4974247;28;20202;-85
2021/04/13 12:37:31;;;;;;;4.27;3.87;;;;;;;;;;4990146;28;20715;-88
2021/04/13 12:40:35;;;;;;;7.07;3.73;;;;;;;;;;4994411;28;20186;-88
2021/04/13 12:43:51;;;;;;;3.70;3.30;;;;;;;;;;4994185;28;20198;-85
2021/04/13 12:46:58;;;;;;;5.23;3.67;;;;;;;;;;5000565;28;20574;-86
2021/04/13 12:50:13;;;;;;;17.60;3.57;;;;;;;;;;4993319;28;20173;-85
2021/04/13 12:53:22;;;;;;;3.30;3.00;;;;;;;;;;4993506;28;20530;-85
2021/04/13 12:56:29;;;;;;;4.50;3.53;;;;;;;;;;4993643;28;20665;-86
2021/04/13 12:59:35;;;;;;;5.93;3.50;;;;;;;;;;4976153;28;20523;-85
2021/04/13 13:02:47;;;;;;;3.63;3.33;;;;;;;;;;4993275;28;20186;-85
2021/04/13 13:05:51;;;;;;;4.07;3.67;;;;;;;;;;5004467;28;20194;-85
2021/04/13 13:09:05;;;;;;;4.97;3.87;;;;;;;;;;5003670;28;20189;-86
2021/04/13 13:12:19;;;;;;;5.17;4.67;;;;;;;;;;4997483;28;20566;-84
2021/04/13 13:15:31;;;;;;;11.17;4.67;;;;;;;;;;4993336;28;20186;-84
2021/04/13 13:18:38;;;;;;;5.80;4.63;;;;;;;;;;5005041;28;20225;-85
2021/04/13 13:21:52;;;;;;;6.83;4.47;;;;;;;;;;4993365;28;20198;-86
2021/04/13 13:25:12;;;;;;;6.00;3.80;;;;;;;;;;5005285;28;20185;-85
2021/04/13 13:28:24;;;;;;;22.33;4.77;;;;;;;;;;4992492;28;20561;-86
2021/04/13 13:31:33;;;;;;;4.20;3.80;;;;;;;;;;4988052;28;20194;-85
2021/04/13 13:34:41;;;;;;;4.07;3.67;;;;;;;;;;4988771;28;20213;-84
2021/04/13 13:37:52;;;;;;;4.63;3.40;;;;;;;;;;4958329;28;20562;-84
2021/04/13 13:40:56;;;;;;;7.03;4.30;;;;;;;;;;4984688;28;20205;-84
2021/04/13 13:44:00;;;;;;;5.33;3.07;;;;;;;;;;4988941;28;20498;-84
2021/04/13 13:47:07;;;;;;;5.77;3.03;;;;;;;;;;5005852;28;20221;-85
2021/04/13 13:50:15;;;;;;;3.50;3.20;;;;;;;;;;4976892;28;20201;-85
2021/04/13 13:53:23;;;;;;;4.87;3.57;;;;;;;;;;4991852;28;20205;-84
2021/04/13 13:56:34;;;;;;;5.17;3.30;;;;;;;;;;4988187;28;20201;-86
2021/04/13 13:59:50;;;;;;;6.70;3.60;;;;;;;;;;4984306;28;20186;-83
2021/04/13 14:03:06;;;;;;;4.30;3.73;;;;;;;;;;4990720;28;20526;-83
2021/04/13 14:06:10;;;;;;;4.73;4.00;;;;;;;;;;4992037;28;20519;-84
2021/04/13 14:09:17;;;;;;;5.13;4.57;;;;;;;;;;5002689;28;20190;-83
2021/04/13 14:12:30;;;;;;;5.80;4.87;;;;;;;;;;4991263;28;20213;-84
2021/04/13 14:15:37;;;;;;;12.17;4.73;;;;;;;;;;4972938;28;20186;-84
2021/04/13 14:18:51;;;;;;;4.80;4.30;;;;;;;;;;4977192;28;20225;-83
2021/04/13 14:22:09;;;;;;;5.57;3.97;;;;;;;;;;5000454;28;20653;-84
2021/04/13 14:25:22;;;;;;;5.90;4.40;;;;;;;;;;4980234;28;20182;-84
2021/04/13 14:28:28;;;;;;;5.43;4.20;;;;;;;;;;4991325;28;20216;-83
2021/04/13 14:31:33;;;;;;;5.60;4.33;;;;;;;;;;4989236;28;20205;-84
2021/04/13 14:34:40;;;;;;;6.00;4.23;;;;;;;;;;5013325;28;20197;-83
2021/04/13 14:37:44;;;;;;;7.07;4.30;;;;;;;;;;4990950;28;20221;-83
2021/04/13 14:40:48;;;;;;;6.87;3.90;;;;;;;;;;4991667;28;20185;-83
2021/04/13 14:43:52;;;;;;;7.37;4.33;;;;;;;;;;4991473;28;20189;-83
2021/04/13 14:46:56;;;;;;;5.43;4.10;;;;;;;;;;4980095;28;20225;-84
2021/04/13 14:50:08;;;;;;;6.20;3.90;;;;;;;;;;4991337;28;20186;-84
2021/04/13 14:53:14;;;;;;;6.53;3.90;;;;;;;;;;4984405;28;20210;-83
2021/04/13 14:56:18;;;;;;;7.03;4.00;;;;;;;;;;4987039;28;20684;-83
2021/04/13 14:59:23;;;;;;;6.37;4.13;;;;;;;;;;4991530;28;20177;-83
2021/04/13 15:02:27;;;;;;;6.60;4.80;;;;;;;;;;4979960;28;20640;-83
2021/04/13 15:05:31;;;;;;;5.20;4.70;;;;;;;;;;4980192;28;20189;-83
2021/04/13 15:08:35;;;;;;;7.10;6.20;;;;;;;;;;5000731;28;20212;-83
2021/04/13 15:11:39;;;;;;;5.67;4.97;;;;;;;;;;4991112;28;20181;-83
2021/04/13 15:14:45;;;;;;;7.40;5.00;;;;;;;;;;4963632;28;20278;-83
2021/04/13 15:17:50;;;;;;;5.57;4.83;;;;;;;;;;4990238;28;20569;-83
2021/04/13 15:20:55;;;;;;;6.73;4.70;;;;;;;;;;4959892;28;20197;-84
2021/04/13 15:24:01;;;;;;;7.87;5.60;;;;;;;;;;4971832;28;20193;-84
2021/04/13 15:27:06;;;;;;;6.33;4.63;;;;;;;;;;4982578;28;20218;-83
2021/04/13 15:30:12;;;;;;;7.20;5.87;;;;;;;;;;4999323;28;20193;-83
2021/04/13 15:33:22;;;;;;;6.30;4.73;;;;;;;;;;4976622;28;20228;-83
2021/04/13 15:36:31;;;;;;;5.33;4.27;;;;;;;;;;4998994;28;20189;-83
2021/04/13 15:39:35;;;;;;;7.00;3.80;;;;;;;;;;4988026;28;20561;-83
2021/04/13 15:42:46;;;;;;;4.20;3.77;;;;;;;;;;4988471;28;20647;-84
2021/04/13 15:46:02;;;;;;;5.10;4.20;;;;;;;;;;4987375;28;20197;-83
2021/04/13 15:49:28;;;;;;;5.20;3.70;;;;;;;;;;4998506;28;20198;-86
2021/04/13 15:52:32;;;;;;;8.20;3.83;;;;;;;;;;4987109;28;20197;-83
2021/04/13 15:55:37;;;;;;;5.37;3.70;;;;;;;;;;4980522;28;20653;-82
2021/04/13 15:58:42;;;;;;;5.27;3.37;;;;;;;;;;4968392;28;20693;-84
2021/04/13 16:01:47;;;;;;;4.80;3.63;;;;;;;;;;4994307;28;20652;-82
2021/04/13 16:04:51;;;;;;;5.20;3.37;;;;;;;;;;4991701;28;20193;-84
2021/04/13 16:07:55;;;;;;;8.53;3.30;;;;;;;;;;5001951;28;20216;-84
2021/04/13 16:10:59;;;;;;;8.37;3.90;;;;;;;;;;4977095;28;20189;-83
2021/04/13 16:14:04;;;;;;;5.33;3.53;;;;;;;;;;4972051;28;20213;-83
2021/04/13 16:17:08;;;;;;;3.13;2.83;;;;;;;;;;4971531;28;20214;-83
2021/04/13 16:20:13;;;;;;;3.60;3.30;;;;;;;;;;4990746;28;20203;-83
2021/04/13 16:23:18;;;;;;;6.53;3.33;;;;;;;;;;4991191;28;20177;-84
2021/04/13 16:26:26;;;;;;;7.47;4.00;;;;;;;;;;5013647;28;20193;-82
2021/04/13 16:29:30;;;;;;;6.73;4.30;;;;;;;;;;4990517;28;20190;-83
2021/04/13 16:32:39;;;;;;;3.73;2.87;;;;;;;;;;4998760;28;20184;-83
2021/04/13 16:35:43;;;;;;;4.13;3.57;;;;;;;;;;5001267;28;20533;-82
2021/04/13 16:38:48;;;;;;;4.87;3.80;;;;;;;;;;4981746;28;20186;-83
2021/04/13 16:41:58;;;;;;;12.47;6.03;;;;;;;;;;4974034;28;20193;-82
2021/04/13 16:45:08;;;;;;;11.33;4.27;;;;;;;;;;5000014;28;20193;-82
2021/04/13 16:48:21;;;;;;;3.40;3.10;;;;;;;;;;5000207;28;20707;-83
2021/04/13 16:51:31;;;;;;;7.23;4.03;;;;;;;;;;4989700;28;20181;-83
2021/04/13 16:54:36;;;;;;;3.53;3.23;;;;;;;;;;4987908;28;20221;-87
2021/04/13 16:57:41;;;;;;;7.40;4.37;;;;;;;;;;4998838;28;20225;-87
2021/04/13 17:00:45;;;;;;;3.90;3.37;;;;;;;;;;5011355;28;20193;-87
2021/04/13 17:03:55;;;;;;;5.37;3.57;;;;;;;;;;5000587;28;20193;-88
2021/04/13 17:07:19;;;;;;;4.20;2.90;;;;;;;;;;4976930;28;20209;-86
2021/04/13 17:10:27;;;;;;;2.97;2.77;;;;;;;;;;4978995;28;20178;-85
2021/04/13 17:13:57;;;;;;;4.17;3.10;;;;;;;;;;4990877;28;20217;-85
2021/04/13 17:17:12;;;;;;;5.40;2.70;;;;;;;;;;4989830;28;20225;-85
2021/04/13 17:20:25;;;;;;;7.73;5.00;;;;;;;;;;4985136;28;20194;-86
2021/04/13 17:23:34;;;;;;;5.33;3.80;;;;;;;;;;5001130;28;20553;-85
2021/04/13 17:26:40;;;;;;;18.87;11.40;;;;;;;;;;4989309;28;20193;-85
2021/04/13 17:29:56;;;;;;;6.87;3.70;;;;;;;;;;5001033;28;20198;-85
2021/04/13 17:33:05;;;;;;;4.50;3.20;;;;;;;;;;5000759;28;20206;-85
2021/04/13 17:36:22;;;;;;;3.10;2.80;;;;;;;;;;4990672;28;20202;-86
2021/04/13 17:39:34;;;;;;;3.90;3.00;;;;;;;;;;4990471;28;20186;-86
2021/04/13 17:42:45;;;;;;;3.10;2.73;;;;;;;;;;4991190;28;20541;-86
2021/04/13 17:45:51;;;;;;;3.50;3.10;;;;;;;;;;5000763;28;20193;-86
2021/04/13 17:48:59;;;;;;;3.20;2.90;;;;;;;;;;4978206;28;20209;-86
2021/04/13 17:52:05;;;;;;;4.27;2.87;;;;;;;;;;5000532;28;20209;-85
2021/04/13 17:55:18;;;;;;;4.33;3.40;;;;;;;;;;4975284;28;20633;-86
2021/04/13 17:58:23;;;;;;;4.30;3.00;;;;;;;;;;4990071;28;20632;-86
2021/04/13 18:01:30;;;;;;;3.50;3.20;;;;;;;;;;4992884;28;20201;-86
2021/04/13 18:04:38;;;;;;;4.27;2.90;;;;;;;;;;5003621;28;20584;-87
2021/04/13 18:08:08;;;;;;;6.47;2.53;;;;;;;;;;5004081;28;20635;-85
2021/04/13 18:11:21;;;;;;;4.93;2.90;;;;;;;;;;4992235;28;20600;-87
2021/04/13 18:14:33;;;;;;;4.93;3.17;;;;;;;;;;4992038;28;20625;-84
2021/04/13 18:17:44;;;;;;;3.27;2.80;;;;;;;;;;4973376;28;20632;-86
2021/04/13 18:20:55;;;;;;;3.23;2.77;;;;;;;;;;4987980;28;20620;-85
2021/04/13 18:24:06;;;;;;;3.43;2.70;;;;;;;;;;5016284;28;20584;-85
2021/04/13 18:27:26;;;;;;;4.47;3.13;;;;;;;;;;4991882;28;20655;-86
2021/04/13 18:30:30;;;;;;;3.17;2.87;;;;;;;;;;5004401;28;20572;-85
2021/04/13 18:33:42;;;;;;;4.47;3.50;;;;;;;;;;4990448;28;20659;-84
2021/04/13 18:36:49;;;;;;;3.50;2.90;;;;;;;;;;4991569;28;21189;-86
2021/04/13 18:40:15;;;;;;;4.73;2.90;;;;;;;;;;4980616;28;20556;-86
2021/04/13 18:43:33;;;;;;;3.07;2.77;;;;;;;;;;4979900;28;20556;-84
2021/04/13 18:46:40;;;;;;;4.60;3.60;;;;;;;;;;4991156;28;20565;-84
2021/04/13 18:49:49;;;;;;;4.83;3.60;;;;;;;;;;5001597;28;20592;-86
2021/04/13 18:53:08;;;;;;;3.90;3.17;;;;;;;;;;4990428;28;21106;-85
2021/04/13 18:56:18;;;;;;;4.37;2.90;;;;;;;;;;4979158;28;20550;-85
2021/04/13 18:59:32;;;;;;;3.53;2.83;;;;;;;;;;4990140;28;20913;-87
2021/04/13 19:02:45;;;;;;;4.57;2.80;;;;;;;;;;4989798;28;20908;-86
2021/04/13 19:05:52;;;;;;;4.43;3.20;;;;;;;;;;4989527;28;20902;-87
2021/04/13 19:09:00;;;;;;;6.00;4.00;;;;;;;;;;4989219;28;21170;-87
2021/04/13 19:12:26;;;;;;;5.20;4.27;;;;;;;;;;5000842;28;21103;-87
2021/04/13 19:15:39;;;;;;;5.17;3.60;;;;;;;;;;4989328;28;20612;-85